Des Moines, IA (50322)

2:01 AM CST on November 26, 2014 (GMT -0600)
Cross Creek West | Change Station
CLOSE
Current Station
Personal Weather Station
Location: Urbandale, IA
Elevation: 951 ft
Nearby Weather Stations

Elev 951 ft 41.64 °N, 93.74 °W | Updated 3 seconds ago

Snow
Snow
32.2 °F
Feels Like 32 °F
N
2.7
Wind Variable Wind from SSW
Gusts 2.7 mph

Today
High -- | Low -- °F
--% Chance of Precip.
Yesterday
High -- | Low -- °F
Precip. -- in
7:16 AM 4:47 PM
Waxing Crescent, 17% visible
Pressure 29.99 in
Visibility 10.0 miles
Clouds Few 2200 ft
Mostly Cloudy 4800 ft
Overcast 6500 ft
Windchill 32 °F
Dew Point 4 °F
Humidity 30%
Rainfall 0.00 in
Snow Depth Not available.
UV 0 out of 12
Pollen .10 out of 12
Air Quality Not available.
Flu Activity Not available.
METAR KDSM 260754Z 17005KT 10SM FEW022 BKN048 OVC065 01/M08 A2996 RMK AO2 SLP154 T00061078

More Conditions Fewer Conditions

Pressure 29.99 in
Visibility 10.0 miles
Clouds Few 2200 ft
Mostly Cloudy 4800 ft
Overcast 6500 ft
Windchill 32 °F
Dew Point 4 °F
Humidity 30%
Rainfall 0.00 in
Snow Depth Not available.
UV 0 out of 12
Pollen .10 out of 12
Air Quality Not available.
Flu Activity Not available.
METAR KDSM 260754Z 17005KT 10SM FEW022 BKN048 OVC065 01/M08 A2996 RMK AO2 SLP154 T00061078

More Conditions Fewer Conditions

10-Day Weather Forecast

Almanac

Astronomy

Nov. 26, 2014 Rise Set
Actual Time
Civil Twilight
Nautical Twilight
Astronomical Twilight
Moon
Length of Visible Light
Length of Day
Tomorrow will be .
, % of the Moon is Illuminated

Today's Extremes

State Highs State Lows

Community

WunderPhotos

Upload Photos

1,773,694 photos uploaded!

WunderBlogs® & News

Nearby

Air Quality

  Air Quality AQ Index Pollutant
Not available.

Snow Depth

Station Depth Elevation

Earthquake Activity

City Distance Mag. Time & Date
Minimum magnitude displayed is 2.5.

Coastal Water Temperatures

Place Temperature

Nearby Weather Stations